Island Princess — ZCDG4 — position and weather

sailwx.info

Track history (hours):
 
Tides and Currents Weather Stations Pressure Air Temp Water Temp Dewpoint Dewpoint Depression Visibility Wind Speed Wind Dir Waves Ship Positions

Island Princess

Operator: Princess Cruises

Last reported at 2019-May-20 14:00 UTC. Time now 2019-May-20 17:22 UTC.
Position N 55°36' W 132°12'.

Type: Passenger vessel. MMSI: 310384000.

Wind from 320 at 7 knots

Barometer 1005.5 mb
Air temperature 10.5 ° C
Visibility: greater than 5.4 NM
Dewpoint 8.5 ° C
Water temperature 9.0 ° C

Date/timePositionNaut miles runAvg speedWind from/ knotsBaromVisibWave heightAir tempDewpointWater temp
2019-May-20 14:00N 55°36' W 132°12'   320 / 71005.5 5.4 10.5 8.5 9.0
2019-May-18 05:51N 58°09' W 135°17'3 9.5
2019-May-18 05:29N 58°11' W 135°22'510.1
2019-May-18 04:59N 58°14' W 135°31'510.2
2019-May-18 04:30N 58°16' W 135°39'510.4
2019-May-18 04:00N 58°19' W 135°47'510.8
2019-May-18 03:30N 58°21' W 135°57'611.0
2019-May-18 03:00N 58°26' W 135°59'612.2
2019-May-18 02:30N 58°32' W 136°04'713.8
2019-May-18 02:01N 58°38' W 136°07'2142.7
2019-May-18 02:00N 58°36' W 136°06'919.5 320 / 101006.2 5.4 10.0 7.9 9.0
2019-May-18 01:30N 58°44' W 136°16'714.4
2019-May-18 01:00N 58°48' W 136°27'6 0.9
2019-May-17 19:07N 58°52' W 136°36'215.7
2019-May-17 19:00N 58°51' W 136°33'1018.6
2019-May-17 18:29N 58°45' W 136°18'918.9
2019-May-17 18:00N 58°38' W 136°07'917.7
2019-May-17 17:30N 58°29' W 136°03'612.9
2019-May-17 17:01N 58°23' W 135°59'612.6
2019-May-17 16:30N 58°19' W 136°08'2012.1
2019-May-17 14:52N 58°09' W 136°40'8 8.9
2019-May-17 14:00N 58°06' W 136°54'12213.6 040 / 41001.9 5.4 9.0 8.6 9.0
2019-May-17 05:02N 59°19' W 140°00'113.6
2019-May-17 04:57N 59°21' W 140°00'2211.4
2019-May-17 03:00N 59°42' W 139°48'30 4.3 230 / 141000.710.8 11.0 4.3 9.0
2019-May-16 20:00N 59°30' W 140°42'9518.9 160 / 61002.910.8 9.5 7.4 9.0
2019-May-16 15:00N 59°24' W 143°48'164 6.1 090 / 151004.110.8 8.0 5.8 9.0
2019-May-15 12:00N 60°42' W 148°36'35 2.7 130 / 51013.310.8 8.0 5.8 8.0
2019-May-14 23:00N 60°42' W 147°24'11714.6 250 / 121010.010.8 10.0 5.6 9.0
2019-May-14 15:00N 59°24' W 144°30'26517.4 060 / 71017.310.8 8.5 7.4 9.0
2019-May-13 23:45N 58°18' W 136°14'418.6
2019-May-13 23:30N 58°20' W 136°07'815.4
2019-May-13 23:00N 58°26' W 135°59'816.3
2019-May-13 22:30N 58°34' W 136°04'1019.6
2019-May-13 22:00N 58°42' W 136°13'15 2.5
2019-May-13 15:54N 58°52' W 136°36'718.8
2019-May-13 15:30N 58°48' W 136°25'1019.4
2019-May-13 15:00N 58°41' W 136°11'917.8
2019-May-13 14:31N 58°33' W 136°04'815.6
2019-May-13 14:00N 58°26' W 135°58'611.6
2019-May-13 13:31N 58°20' W 135°56'612.3
2019-May-13 13:00N 58°18' W 135°45'612.1
2019-May-13 12:28N 58°16' W 135°33'612.2
2019-May-13 12:00N 58°13' W 135°23'1414.3
2019-May-13 11:00N 58°06' W 135°00'42 1.8 260 / 51014.710.8 7.0 4.7 9.0
2019-May-12 11:00N 58°48' W 135°12'31 1.3 150 / 141020.710.8 7.0 2.1 7.0
2019-May-11 11:00N 58°18' W 134°54'14 3.3 200 / 191015.110.8 8.0 3.3 8.0
2019-May-11 06:46N 58°09' W 135°14'312.1
2019-May-11 06:30N 58°10' W 135°20'4 8.6
2019-May-11 06:01N 58°08' W 135°28'0 0.3
2019-May-11 04:49N 58°08' W 135°28'3 1.6
2019-May-11 03:00N 58°06' W 135°24'3 1.9 1014.210.8 10.0 6.811.0
2019-May-11 01:25N 58°08' W 135°28'0 0.0
2019-May-11 00:49N 58°08' W 135°28'1 0.2
2019-May-10 20:41N 58°08' W 135°27'  
Track history (hours):
 
Tides and Currents Weather Stations Pressure Air Temp Water Temp Dewpoint Dewpoint Depression Visibility Wind Speed Wind Dir Waves Ship Positions

Island Princess

Operator: Princess Cruises

Last reported at 2019-May-20 14:00 UTC. Time now 2019-May-20 17:22 UTC.
Position N 55°36' W 132°12'.

Type: Passenger vessel. MMSI: 310384000.

Wind from 320 at 7 knots

Barometer 1005.5 mb
Air temperature 10.5 ° C
Visibility: greater than 5.4 NM
Dewpoint 8.5 ° C
Water temperature 9.0 ° C

Date/timePositionNaut miles runAvg speedWind from/ knotsBaromVisibWave heightAir tempDewpointWater temp
2019-May-20 14:00N 55°36' W 132°12'   320 / 71005.5 5.4 10.5 8.5 9.0
2019-May-18 05:51N 58°09' W 135°17'3 9.5
2019-May-18 05:29N 58°11' W 135°22'510.1
2019-May-18 04:59N 58°14' W 135°31'510.2
2019-May-18 04:30N 58°16' W 135°39'510.4
2019-May-18 04:00N 58°19' W 135°47'510.8
2019-May-18 03:30N 58°21' W 135°57'611.0
2019-May-18 03:00N 58°26' W 135°59'612.2
2019-May-18 02:30N 58°32' W 136°04'713.8
2019-May-18 02:01N 58°38' W 136°07'2142.7
2019-May-18 02:00N 58°36' W 136°06'919.5 320 / 101006.2 5.4 10.0 7.9 9.0
2019-May-18 01:30N 58°44' W 136°16'714.4
2019-May-18 01:00N 58°48' W 136°27'6 0.9
2019-May-17 19:07N 58°52' W 136°36'215.7
2019-May-17 19:00N 58°51' W 136°33'1018.6
2019-May-17 18:29N 58°45' W 136°18'918.9
2019-May-17 18:00N 58°38' W 136°07'917.7
2019-May-17 17:30N 58°29' W 136°03'612.9
2019-May-17 17:01N 58°23' W 135°59'612.6
2019-May-17 16:30N 58°19' W 136°08'2012.1
2019-May-17 14:52N 58°09' W 136°40'8 8.9
2019-May-17 14:00N 58°06' W 136°54'12213.6 040 / 41001.9 5.4 9.0 8.6 9.0
2019-May-17 05:02N 59°19' W 140°00'113.6
2019-May-17 04:57N 59°21' W 140°00'2211.4
2019-May-17 03:00N 59°42' W 139°48'30 4.3 230 / 141000.710.8 11.0 4.3 9.0
2019-May-16 20:00N 59°30' W 140°42'9518.9 160 / 61002.910.8 9.5 7.4 9.0
2019-May-16 15:00N 59°24' W 143°48'164 6.1 090 / 151004.110.8 8.0 5.8 9.0
2019-May-15 12:00N 60°42' W 148°36'35 2.7 130 / 51013.310.8 8.0 5.8 8.0
2019-May-14 23:00N 60°42' W 147°24'11714.6 250 / 121010.010.8 10.0 5.6 9.0
2019-May-14 15:00N 59°24' W 144°30'26517.4 060 / 71017.310.8 8.5 7.4 9.0
2019-May-13 23:45N 58°18' W 136°14'418.6
2019-May-13 23:30N 58°20' W 136°07'815.4
2019-May-13 23:00N 58°26' W 135°59'816.3
2019-May-13 22:30N 58°34' W 136°04'1019.6
2019-May-13 22:00N 58°42' W 136°13'15 2.5
2019-May-13 15:54N 58°52' W 136°36'718.8
2019-May-13 15:30N 58°48' W 136°25'1019.4
2019-May-13 15:00N 58°41' W 136°11'917.8
2019-May-13 14:31N 58°33' W 136°04'815.6
2019-May-13 14:00N 58°26' W 135°58'611.6
2019-May-13 13:31N 58°20' W 135°56'612.3
2019-May-13 13:00N 58°18' W 135°45'612.1
2019-May-13 12:28N 58°16' W 135°33'612.2
2019-May-13 12:00N 58°13' W 135°23'1414.3
2019-May-13 11:00N 58°06' W 135°00'42 1.8 260 / 51014.710.8 7.0 4.7 9.0
2019-May-12 11:00N 58°48' W 135°12'31 1.3 150 / 141020.710.8 7.0 2.1 7.0
2019-May-11 11:00N 58°18' W 134°54'14 3.3 200 / 191015.110.8 8.0 3.3 8.0
2019-May-11 06:46N 58°09' W 135°14'312.1
2019-May-11 06:30N 58°10' W 135°20'4 8.6
2019-May-11 06:01N 58°08' W 135°28'0 0.3
2019-May-11 04:49N 58°08' W 135°28'3 1.6
2019-May-11 03:00N 58°06' W 135°24'3 1.9 1014.210.8 10.0 6.811.0
2019-May-11 01:25N 58°08' W 135°28'0 0.0
2019-May-11 00:49N 58°08' W 135°28'1 0.2
2019-May-10 20:41N 58°08' W 135°27'  

Dump ship's entire track history